createdAt,value
2018-06-04T00:13:15.938Z,0.00
2018-06-04T00:14:15.873Z,0.00
2018-06-04T00:15:15.824Z,0.00
2018-06-04T00:16:15.782Z,0.00
2018-06-04T00:17:15.736Z,0.00
2018-06-04T00:18:15.692Z,0.00
2018-06-04T00:19:15.650Z,0.00
2018-06-04T00:20:15.606Z,0.00
2018-06-04T00:21:15.561Z,0.00
2018-06-04T00:22:15.519Z,0.00
2018-06-04T00:23:15.476Z,0.00
2018-06-04T00:24:15.435Z,0.00
2018-06-04T00:25:15.394Z,0.00
2018-06-04T00:26:15.343Z,0.00
2018-06-04T00:27:15.304Z,0.00
2018-06-04T00:28:15.264Z,0.00
2018-06-04T00:29:15.225Z,0.00
2018-06-04T00:30:15.174Z,0.00
2018-06-04T00:31:15.133Z,0.00
2018-06-04T00:32:15.098Z,0.00
2018-06-04T00:33:15.060Z,0.00
2018-06-04T00:34:15.010Z,0.00
2018-06-04T00:35:14.967Z,0.00
2018-06-04T00:36:14.924Z,0.00
2018-06-04T00:37:14.881Z,0.00
2018-06-04T00:38:14.839Z,0.00
2018-06-04T00:39:14.801Z,0.00
2018-06-04T00:40:14.760Z,0.00
2018-06-04T00:41:14.720Z,0.00
2018-06-04T00:42:14.675Z,0.00
2018-06-04T00:43:14.633Z,0.00
2018-06-04T00:44:14.592Z,0.00
2018-06-04T00:45:14.547Z,0.00
2018-06-04T00:46:14.511Z,0.00
2018-06-04T00:47:14.465Z,0.00
2018-06-04T00:48:14.425Z,0.00
2018-06-04T00:49:14.382Z,0.00
2018-06-04T00:50:14.341Z,0.00
2018-06-04T00:51:14.300Z,0.00
2018-06-04T00:52:14.255Z,0.00
2018-06-04T00:53:14.214Z,0.00
2018-06-04T00:54:14.176Z,0.00
2018-06-04T00:55:14.134Z,0.00
2018-06-04T00:56:14.090Z,0.00
2018-06-04T00:57:14.054Z,0.00
2018-06-04T00:58:14.005Z,0.00
2018-06-04T00:59:13.964Z,0.00
2018-06-04T01:00:13.924Z,0.00
2018-06-04T01:01:13.880Z,0.00
2018-06-04T01:02:13.842Z,0.00
2018-06-04T01:03:13.800Z,0.00
2018-06-04T01:04:13.756Z,0.00
2018-06-04T01:05:13.718Z,0.00
2018-06-04T01:06:13.671Z,0.00
2018-06-04T01:07:13.631Z,0.00
2018-06-04T01:08:13.589Z,0.00
2018-06-04T01:09:13.545Z,0.00
2018-06-04T01:10:13.507Z,0.00
2018-06-04T01:11:13.463Z,0.00
2018-06-04T01:12:13.419Z,0.00
2018-06-04T01:13:13.381Z,0.00
2018-06-04T01:14:13.340Z,0.00
2018-06-04T01:15:13.296Z,0.00
2018-06-04T01:16:13.254Z,0.00
2018-06-04T01:17:13.211Z,0.00
2018-06-04T01:18:13.171Z,0.00
2018-06-04T01:19:13.125Z,0.00
2018-06-04T01:20:13.092Z,0.00
2018-06-04T01:21:13.042Z,0.00
2018-06-04T01:22:13.005Z,0.00
2018-06-04T01:23:12.960Z,0.00
2018-06-04T01:24:12.921Z,0.00
2018-06-04T01:25:12.878Z,0.00
2018-06-04T01:26:12.840Z,0.00
2018-06-04T01:27:12.792Z,0.00
2018-06-04T01:28:12.752Z,0.00
2018-06-04T01:29:12.709Z,0.00
2018-06-04T01:30:12.667Z,0.00
2018-06-04T01:31:12.630Z,0.00
2018-06-04T01:32:12.581Z,0.00
2018-06-04T01:33:12.546Z,0.00
2018-06-04T01:34:12.498Z,0.00
2018-06-04T01:35:12.463Z,0.00
2018-06-04T01:36:12.416Z,0.00
2018-06-04T01:37:12.374Z,0.00
2018-06-04T01:38:12.331Z,0.00
2018-06-04T01:39:12.295Z,0.00
2018-06-04T01:40:12.248Z,0.00
2018-06-04T01:41:12.208Z,0.00
2018-06-04T01:42:12.167Z,0.00
2018-06-04T01:43:12.122Z,0.00
2018-06-04T01:44:12.082Z,0.00
2018-06-04T01:45:12.039Z,0.00
2018-06-04T01:46:11.996Z,0.00
2018-06-04T01:47:11.957Z,0.00
2018-06-04T01:48:11.918Z,0.00
2018-06-04T01:49:11.873Z,0.00
2018-06-04T01:50:11.832Z,0.00
2018-06-04T01:51:11.789Z,0.00
2018-06-04T01:52:11.745Z,0.00
2018-06-04T01:53:11.705Z,0.00
2018-06-04T01:54:11.661Z,0.00
2018-06-04T01:55:11.627Z,0.00
2018-06-04T01:56:11.581Z,0.00
2018-06-04T01:57:11.534Z,0.00
2018-06-04T01:58:11.492Z,0.00
2018-06-04T01:59:11.449Z,0.00
2018-06-04T02:00:11.408Z,0.00
2018-06-04T02:01:11.369Z,0.00
2018-06-04T02:02:11.322Z,0.00
2018-06-04T02:03:11.284Z,0.00
2018-06-04T02:04:11.241Z,0.00
2018-06-04T02:05:11.202Z,0.00
2018-06-04T02:06:11.162Z,0.00
2018-06-04T02:07:11.113Z,0.00
2018-06-04T02:08:11.073Z,0.00
2018-06-04T02:09:11.030Z,0.00
2018-06-04T02:10:10.990Z,0.00
2018-06-04T02:11:10.943Z,0.00
2018-06-04T02:12:10.906Z,0.00
2018-06-04T02:13:10.866Z,0.00
2018-06-04T02:14:10.821Z,0.00
2018-06-04T02:15:10.783Z,0.00
2018-06-04T02:16:10.738Z,0.00
2018-06-04T02:17:10.691Z,0.00
2018-06-04T02:18:10.653Z,0.00
2018-06-04T02:19:10.608Z,0.00
2018-06-04T02:20:10.571Z,0.00
2018-06-04T02:21:10.527Z,0.00
2018-06-04T02:22:10.485Z,0.00
2018-06-04T02:23:10.442Z,0.00
2018-06-04T02:24:10.399Z,0.00
2018-06-04T02:25:10.353Z,0.00
2018-06-04T02:26:10.312Z,0.00
2018-06-04T02:27:10.271Z,0.00
2018-06-04T02:28:10.233Z,0.00
2018-06-04T02:29:10.187Z,0.00
2018-06-04T02:30:10.145Z,0.00
2018-06-04T02:31:10.106Z,0.00
2018-06-04T02:32:10.063Z,0.00
2018-06-04T02:33:10.018Z,0.00
2018-06-04T02:34:09.987Z,0.00
2018-06-04T02:35:09.937Z,0.00
2018-06-04T02:36:09.892Z,0.00
2018-06-04T02:37:09.848Z,0.00
2018-06-04T02:38:09.810Z,0.00
2018-06-04T02:39:09.769Z,0.00
2018-06-04T02:40:09.724Z,0.00
2018-06-04T02:41:09.679Z,0.00
2018-06-04T02:42:09.635Z,0.00
2018-06-04T02:43:09.603Z,0.00
2018-06-04T02:44:09.565Z,0.00
2018-06-04T02:45:09.509Z,0.00
2018-06-04T02:46:09.469Z,0.00
2018-06-04T02:47:09.430Z,0.00
2018-06-04T02:48:09.394Z,0.00
2018-06-04T02:49:09.347Z,0.00
2018-06-04T02:50:09.470Z,0.00
2018-06-04T02:51:09.255Z,0.00
2018-06-04T02:52:09.215Z,0.00
2018-06-04T02:53:09.185Z,0.00
2018-06-04T02:54:09.129Z,0.00
2018-06-04T02:55:09.086Z,0.00
2018-06-04T02:56:09.050Z,0.00
2018-06-04T02:57:09.008Z,0.00
2018-06-04T02:58:08.962Z,0.00
2018-06-04T02:59:08.919Z,0.00
2018-06-04T03:00:08.876Z,0.00
2018-06-04T03:01:08.835Z,0.00
2018-06-04T03:02:08.791Z,0.00
2018-06-04T03:03:08.759Z,0.00
2018-06-04T03:04:08.708Z,0.00
2018-06-04T03:05:08.661Z,0.00
2018-06-04T03:06:08.620Z,0.00
2018-06-04T03:07:08.580Z,0.00
2018-06-04T03:08:08.535Z,0.00
2018-06-04T03:09:08.494Z,0.00
2018-06-04T03:10:08.450Z,0.00
2018-06-04T03:11:08.422Z,0.00
2018-06-04T03:12:08.366Z,0.00
2018-06-04T03:13:08.333Z,0.00
2018-06-04T03:14:08.288Z,0.00
2018-06-04T03:15:08.243Z,0.00
2018-06-04T03:16:08.196Z,0.00
2018-06-04T03:17:08.154Z,0.00
2018-06-04T03:18:08.111Z,0.00
2018-06-04T03:19:08.066Z,0.00
2018-06-04T03:20:08.024Z,0.00
2018-06-04T03:21:07.983Z,0.00
2018-06-04T03:22:07.942Z,0.00
2018-06-04T03:23:07.899Z,0.00
2018-06-04T03:24:07.857Z,0.00
2018-06-04T03:25:07.816Z,0.00
2018-06-04T03:26:07.768Z,0.00
2018-06-04T03:27:07.729Z,0.00
2018-06-04T03:28:07.687Z,0.00
2018-06-04T03:29:07.645Z,4.00
2018-06-04T03:30:07.603Z,4.00
2018-06-04T03:31:07.556Z,4.00
2018-06-04T03:32:07.519Z,0.00
2018-06-04T03:33:07.474Z,0.00
2018-06-04T03:34:07.430Z,0.00
2018-06-04T03:35:07.387Z,4.00
2018-06-04T03:36:07.350Z,0.00
2018-06-04T03:37:07.303Z,4.00
2018-06-04T03:38:07.256Z,0.00
2018-06-04T03:39:07.216Z,0.00
2018-06-04T03:40:07.177Z,4.00
2018-06-04T03:41:07.137Z,0.00
2018-06-04T03:42:07.095Z,4.00
2018-06-04T03:43:07.046Z,4.00
2018-06-04T03:44:07.004Z,4.00
2018-06-04T03:45:06.959Z,0.00
2018-06-04T03:46:06.917Z,4.00
2018-06-04T03:47:06.874Z,4.00
2018-06-04T03:48:06.837Z,4.00
2018-06-04T03:49:06.792Z,4.00
2018-06-04T03:50:06.748Z,4.00
2018-06-04T03:51:06.716Z,4.00
2018-06-04T03:52:06.674Z,4.00
2018-06-04T03:53:06.620Z,8.00
2018-06-04T03:54:06.577Z,4.00
2018-06-04T03:55:06.533Z,4.00
2018-06-04T03:56:06.500Z,4.00
2018-06-04T03:57:06.475Z,4.00
2018-06-04T03:58:06.407Z,4.00
2018-06-04T03:59:06.369Z,8.00
2018-06-04T04:00:06.325Z,8.00
2018-06-04T04:01:06.281Z,8.00
2018-06-04T04:02:06.236Z,8.00
2018-06-04T04:03:06.193Z,8.00
2018-06-04T04:04:06.160Z,8.00
2018-06-04T04:05:06.109Z,12.00
2018-06-04T04:06:06.065Z,8.00
2018-06-04T04:07:06.030Z,8.00
2018-06-04T04:08:05.980Z,12.00
2018-06-04T04:09:05.939Z,12.00
2018-06-04T04:10:05.895Z,12.00
2018-06-04T04:11:05.857Z,12.00
2018-06-04T04:12:05.812Z,12.00
2018-06-04T04:13:05.767Z,8.00
2018-06-04T04:14:05.729Z,12.00
2018-06-04T04:15:05.686Z,12.00
2018-06-04T04:16:05.645Z,16.00
2018-06-04T04:17:05.601Z,12.00
2018-06-04T04:18:05.553Z,16.00
2018-06-04T04:19:05.515Z,16.00
2018-06-04T04:20:05.471Z,16.00
2018-06-04T04:21:05.427Z,16.00
2018-06-04T04:22:05.387Z,20.00
2018-06-04T04:23:05.345Z,20.00
2018-06-04T04:24:05.306Z,20.00
2018-06-04T04:25:05.257Z,20.00
2018-06-04T04:26:05.214Z,20.00
2018-06-04T04:27:05.173Z,20.00
2018-06-04T04:28:05.129Z,20.00
2018-06-04T04:29:05.093Z,24.00
2018-06-04T04:30:05.045Z,20.00
2018-06-04T04:31:05.003Z,24.00
2018-06-04T04:32:04.965Z,24.00
2018-06-04T04:33:04.916Z,24.00
2018-06-04T04:34:04.875Z,24.00
2018-06-04T04:35:04.835Z,24.00
2018-06-04T04:36:04.790Z,28.00
2018-06-04T04:37:04.747Z,24.00
2018-06-04T04:38:04.711Z,24.00
2018-06-04T04:39:04.668Z,24.00
2018-06-04T04:40:04.620Z,24.00
2018-06-04T04:41:04.584Z,28.00
2018-06-04T04:42:04.536Z,28.00
2018-06-04T04:43:04.495Z,28.00
2018-06-04T04:44:04.454Z,28.00
2018-06-04T04:45:04.409Z,28.00
2018-06-04T04:46:04.369Z,28.00
2018-06-04T04:47:04.324Z,28.00
2018-06-04T04:48:04.281Z,28.00
2018-06-04T04:49:04.241Z,28.00
2018-06-04T04:50:04.203Z,28.00
2018-06-04T04:51:04.155Z,28.00
2018-06-04T04:52:04.122Z,32.00
2018-06-04T04:53:04.068Z,32.00
2018-06-04T04:54:04.025Z,32.00
2018-06-04T04:55:03.988Z,32.00
2018-06-04T04:56:03.942Z,32.00
2018-06-04T04:57:03.902Z,36.00
2018-06-04T04:58:03.856Z,32.00
2018-06-04T04:59:03.815Z,36.00
2018-06-04T05:00:03.775Z,36.00
2018-06-04T05:01:03.732Z,36.00
2018-06-04T05:02:03.689Z,36.00
2018-06-04T05:03:03.648Z,36.00
2018-06-04T05:04:03.604Z,40.00
2018-06-04T05:05:03.566Z,36.00
2018-06-04T05:06:03.523Z,36.00
2018-06-04T05:07:03.481Z,40.00
2018-06-04T05:08:03.436Z,40.00
2018-06-04T05:09:03.395Z,36.00
2018-06-04T05:10:03.348Z,36.00
2018-06-04T05:11:03.311Z,40.00
2018-06-04T05:12:03.268Z,40.00
2018-06-04T05:13:03.224Z,40.00
2018-06-04T05:14:03.184Z,44.00
2018-06-04T05:15:03.140Z,40.00
2018-06-04T05:16:03.099Z,40.00
2018-06-04T05:17:03.058Z,40.00
2018-06-04T05:18:03.017Z,44.00
2018-06-04T05:19:02.975Z,44.00
2018-06-04T05:20:02.932Z,44.00
2018-06-04T05:21:02.893Z,44.00
2018-06-04T05:22:02.851Z,40.00
2018-06-04T05:23:02.803Z,44.00
2018-06-04T05:24:02.798Z,44.00
2018-06-04T05:25:02.719Z,44.00
2018-06-04T05:26:02.682Z,44.00
2018-06-04T05:27:02.636Z,44.00
2018-06-04T05:28:02.596Z,44.00
2018-06-04T05:29:02.569Z,44.00
2018-06-04T05:30:02.515Z,48.00
2018-06-04T05:31:02.468Z,44.00
2018-06-04T05:32:02.427Z,44.00
2018-06-04T05:33:02.388Z,48.00
2018-06-04T05:34:02.347Z,44.00
2018-06-04T05:35:02.307Z,44.00
2018-06-04T05:36:02.266Z,44.00
2018-06-04T05:37:02.220Z,48.00
2018-06-04T05:38:02.176Z,48.00
2018-06-04T05:39:02.136Z,48.00
2018-06-04T05:40:02.098Z,48.00
2018-06-04T05:41:02.052Z,48.00
2018-06-04T05:42:02.014Z,48.00
2018-06-04T05:43:01.974Z,48.00
2018-06-04T05:44:01.925Z,48.00
2018-06-04T05:45:01.883Z,48.00
2018-06-04T05:46:01.840Z,48.00
2018-06-04T05:47:01.805Z,48.00
2018-06-04T05:48:01.760Z,44.00
2018-06-04T05:49:01.717Z,48.00
2018-06-04T05:50:01.735Z,48.00
2018-06-04T05:51:01.640Z,48.00
2018-06-04T05:52:01.601Z,48.00
2018-06-04T05:53:01.548Z,44.00
2018-06-04T05:54:01.510Z,48.00
2018-06-04T05:55:01.468Z,48.00
2018-06-04T05:56:01.427Z,48.00
2018-06-04T05:57:01.382Z,48.00
2018-06-04T05:58:01.341Z,44.00
2018-06-04T05:59:01.302Z,44.00
2018-06-04T06:00:01.266Z,48.00
2018-06-04T06:01:01.219Z,48.00
2018-06-04T06:02:01.180Z,48.00
2018-06-04T06:03:01.135Z,44.00
2018-06-04T06:04:01.090Z,48.00
2018-06-04T06:05:01.056Z,48.00
2018-06-04T06:06:01.014Z,44.00
2018-06-04T06:07:00.968Z,44.00
2018-06-04T06:08:00.923Z,48.00
2018-06-04T06:09:00.880Z,44.00
2018-06-04T06:10:00.840Z,44.00
2018-06-04T06:11:00.797Z,44.00
2018-06-04T06:12:00.759Z,44.00
2018-06-04T06:13:00.719Z,44.00
2018-06-04T06:14:00.672Z,44.00
2018-06-04T06:15:00.635Z,48.00
2018-06-04T06:16:00.592Z,44.00
2018-06-04T06:17:00.549Z,44.00
2018-06-04T06:18:00.505Z,44.00
2018-06-04T06:19:00.468Z,44.00
2018-06-04T06:20:00.425Z,44.00
2018-06-04T06:21:00.382Z,44.00
2018-06-04T06:22:00.340Z,44.00
2018-06-04T06:23:00.299Z,44.00
2018-06-04T06:24:00.262Z,44.00
2018-06-04T06:25:00.219Z,44.00
2018-06-04T06:26:00.172Z,44.00
2018-06-04T06:27:00.132Z,40.00
2018-06-04T06:28:00.084Z,44.00
2018-06-04T06:29:00.049Z,44.00
2018-06-04T06:30:00.005Z,44.00
2018-06-04T06:30:59.966Z,40.00
2018-06-04T06:31:59.924Z,40.00
2018-06-04T06:32:59.882Z,44.00
2018-06-04T06:33:59.839Z,44.00
2018-06-04T06:34:59.794Z,40.00
2018-06-04T06:35:59.753Z,40.00
2018-06-04T06:36:59.715Z,40.00
2018-06-04T06:37:59.671Z,44.00
2018-06-04T06:38:59.631Z,40.00
2018-06-04T06:39:59.588Z,40.00
2018-06-04T06:40:59.549Z,40.00
2018-06-04T06:41:59.504Z,40.00
2018-06-04T06:42:59.464Z,40.00
2018-06-04T06:43:59.425Z,40.00
2018-06-04T06:44:59.376Z,40.00
2018-06-04T06:45:59.345Z,40.00
2018-06-04T06:46:59.294Z,40.00
2018-06-04T06:47:59.259Z,32.00
2018-06-04T06:48:59.213Z,40.00
2018-06-04T06:49:59.175Z,36.00
2018-06-04T06:50:59.134Z,32.00
2018-06-04T06:51:59.087Z,32.00
2018-06-04T06:52:59.045Z,36.00
2018-06-04T06:53:59.011Z,36.00
2018-06-04T06:54:58.961Z,40.00
2018-06-04T06:55:58.957Z,40.00
2018-06-04T06:56:58.876Z,40.00
2018-06-04T06:57:58.839Z,40.00
2018-06-04T06:58:58.799Z,40.00
2018-06-04T06:59:58.751Z,36.00
2018-06-04T07:00:58.723Z,36.00
2018-06-04T07:01:58.671Z,40.00
2018-06-04T07:02:58.628Z,36.00
2018-06-04T07:03:58.596Z,32.00
2018-06-04T07:04:58.544Z,28.00
2018-06-04T07:05:58.509Z,28.00
2018-06-04T07:06:58.462Z,28.00
2018-06-04T07:07:58.418Z,28.00
2018-06-04T07:08:58.375Z,28.00
2018-06-04T07:09:58.333Z,24.00
2018-06-04T07:10:58.295Z,24.00
2018-06-04T07:11:58.255Z,24.00
2018-06-04T07:12:58.213Z,28.00
2018-06-04T07:13:58.171Z,28.00
2018-06-04T07:14:58.126Z,28.00
2018-06-04T07:15:58.088Z,24.00
2018-06-04T07:16:58.045Z,24.00
2018-06-04T07:17:58.007Z,24.00
2018-06-04T07:18:57.963Z,24.00
2018-06-04T07:19:57.922Z,28.00
2018-06-04T07:20:57.881Z,24.00
2018-06-04T07:21:57.839Z,24.00
2018-06-04T07:22:57.793Z,24.00
2018-06-04T07:23:57.757Z,24.00
2018-06-04T07:24:57.757Z,24.00
2018-06-04T07:25:57.671Z,24.00
2018-06-04T07:26:57.634Z,24.00
2018-06-04T07:27:57.736Z,24.00
2018-06-04T07:28:57.554Z,24.00
2018-06-04T07:29:57.509Z,24.00
2018-06-04T07:30:57.464Z,24.00
2018-06-04T07:31:57.428Z,24.00
2018-06-04T07:32:57.387Z,24.00
2018-06-04T07:33:57.345Z,24.00
2018-06-04T07:34:57.342Z,24.00
2018-06-04T07:35:57.263Z,20.00
2018-06-04T07:36:57.227Z,20.00
2018-06-04T07:37:57.180Z,24.00
2018-06-04T07:38:57.137Z,24.00
2018-06-04T07:39:57.099Z,20.00
2018-06-04T07:40:57.092Z,20.00
2018-06-04T07:41:57.016Z,20.00
2018-06-04T07:42:56.971Z,20.00
2018-06-04T07:43:56.939Z,20.00
2018-06-04T07:44:56.891Z,20.00
2018-06-04T07:45:56.852Z,20.00
2018-06-04T07:46:56.812Z,20.00
2018-06-04T07:47:56.768Z,20.00
2018-06-04T07:48:56.731Z,20.00
2018-06-04T07:49:56.751Z,20.00
2018-06-04T07:50:56.648Z,24.00
2018-06-04T07:51:56.608Z,24.00
2018-06-04T07:52:56.564Z,24.00
2018-06-04T07:53:56.522Z,24.00
2018-06-04T07:54:56.477Z,24.00
2018-06-04T07:55:56.442Z,24.00
2018-06-04T07:56:56.400Z,24.00
2018-06-04T07:57:56.361Z,24.00
2018-06-04T07:58:56.319Z,24.00
2018-06-04T07:59:56.279Z,24.00
2018-06-04T08:00:56.235Z,24.00
2018-06-04T08:01:56.208Z,20.00
2018-06-04T08:02:56.158Z,20.00
2018-06-04T08:03:56.113Z,20.00
2018-06-04T08:04:56.072Z,20.00
2018-06-04T08:05:56.034Z,20.00
2018-06-04T08:06:55.993Z,20.00
2018-06-04T08:07:55.946Z,20.00
2018-06-04T08:08:55.909Z,20.00
2018-06-04T08:09:55.869Z,20.00
2018-06-04T08:10:55.827Z,20.00
2018-06-04T08:11:55.790Z,20.00
2018-06-04T08:12:55.745Z,20.00
2018-06-04T08:13:55.709Z,20.00
2018-06-04T08:14:55.664Z,20.00
2018-06-04T08:15:55.625Z,20.00
2018-06-04T08:16:55.583Z,20.00
2018-06-04T08:17:55.584Z,20.00
2018-06-04T08:18:55.532Z,20.00
2018-06-04T08:19:55.471Z,20.00
2018-06-04T08:20:55.417Z,20.00
2018-06-04T08:21:55.389Z,20.00
2018-06-04T08:22:55.337Z,20.00
2018-06-04T08:23:55.340Z,20.00
2018-06-04T08:24:55.256Z,20.00
2018-06-04T08:25:55.217Z,20.00
2018-06-04T08:26:55.180Z,20.00
2018-06-04T08:27:55.140Z,20.00
2018-06-04T08:28:55.092Z,24.00
2018-06-04T08:29:55.047Z,24.00
2018-06-04T08:30:55.016Z,20.00
2018-06-04T08:31:54.972Z,24.00
2018-06-04T08:32:54.934Z,24.00
2018-06-04T08:33:54.888Z,24.00
2018-06-04T08:34:54.851Z,24.00
2018-06-04T08:35:54.870Z,24.00
2018-06-04T08:36:54.764Z,20.00
2018-06-04T08:37:54.727Z,20.00
2018-06-04T08:38:54.683Z,20.00
2018-06-04T08:39:54.654Z,20.00
2018-06-04T08:40:54.653Z,20.00
2018-06-04T08:41:54.602Z,20.00
2018-06-04T08:42:54.525Z,20.00
2018-06-04T08:43:54.482Z,20.00
2018-06-04T08:44:54.440Z,20.00
2018-06-04T08:45:54.505Z,20.00
2018-06-04T08:46:54.362Z,20.00
2018-06-04T08:47:54.322Z,20.00
2018-06-04T08:48:54.278Z,20.00
2018-06-04T08:49:54.236Z,20.00
2018-06-04T08:50:54.213Z,20.00
2018-06-04T08:51:54.156Z,20.00
2018-06-04T08:52:54.117Z,16.00
2018-06-04T08:53:54.074Z,16.00
2018-06-04T08:54:54.035Z,20.00
2018-06-04T08:55:53.994Z,20.00
2018-06-04T08:56:53.955Z,20.00
2018-06-04T08:57:53.914Z,20.00
2018-06-04T08:58:53.883Z,20.00
2018-06-04T08:59:53.836Z,20.00
2018-06-04T09:00:53.791Z,20.00
2018-06-04T09:01:53.749Z,20.00
2018-06-04T09:02:53.706Z,20.00
2018-06-04T09:03:53.671Z,20.00
2018-06-04T09:04:53.629Z,20.00
2018-06-04T09:05:53.592Z,20.00
2018-06-04T09:06:53.543Z,20.00
2018-06-04T09:07:53.506Z,20.00
2018-06-04T09:08:53.458Z,20.00
2018-06-04T09:09:53.487Z,20.00
2018-06-04T09:10:53.384Z,16.00
2018-06-04T09:11:53.343Z,16.00
2018-06-04T09:12:53.301Z,16.00
2018-06-04T09:13:53.264Z,16.00
2018-06-04T09:14:53.218Z,20.00
2018-06-04T09:15:53.181Z,20.00
2018-06-04T09:16:53.140Z,20.00
2018-06-04T09:17:53.098Z,20.00
2018-06-04T09:18:53.064Z,20.00
2018-06-04T09:19:53.017Z,20.00
2018-06-04T09:20:52.977Z,20.00
2018-06-04T09:21:52.932Z,20.00
2018-06-04T09:22:52.893Z,20.00
2018-06-04T09:23:52.853Z,16.00
2018-06-04T09:24:52.813Z,16.00
2018-06-04T09:25:52.775Z,16.00
2018-06-04T09:26:52.735Z,16.00
2018-06-04T09:27:52.692Z,16.00
2018-06-04T09:28:52.655Z,16.00
2018-06-04T09:29:52.615Z,16.00
2018-06-04T09:30:52.573Z,16.00
2018-06-04T09:31:52.530Z,16.00
2018-06-04T09:32:52.491Z,16.00
2018-06-04T09:33:52.447Z,16.00
2018-06-04T09:34:52.408Z,16.00
2018-06-04T09:35:52.379Z,16.00
2018-06-04T09:36:52.324Z,20.00
2018-06-04T09:37:52.286Z,20.00
2018-06-04T09:38:52.250Z,16.00
2018-06-04T09:39:52.205Z,16.00
2018-06-04T09:40:52.164Z,16.00
2018-06-04T09:41:52.124Z,16.00
2018-06-04T09:42:52.081Z,16.00
2018-06-04T09:43:52.043Z,16.00
2018-06-04T09:44:52.011Z,16.00
2018-06-04T09:45:51.963Z,16.00
2018-06-04T09:46:51.924Z,16.00
2018-06-04T09:47:51.878Z,16.00
2018-06-04T09:48:51.851Z,16.00
2018-06-04T09:49:51.800Z,12.00
2018-06-04T09:50:51.757Z,16.00
2018-06-04T09:51:51.722Z,16.00
2018-06-04T09:52:51.676Z,16.00
2018-06-04T09:53:51.697Z,16.00
2018-06-04T09:54:51.597Z,16.00
2018-06-04T09:55:51.557Z,16.00
2018-06-04T09:56:51.514Z,16.00
2018-06-04T09:57:51.476Z,16.00
2018-06-04T09:58:51.433Z,16.00
2018-06-04T09:59:51.393Z,12.00
2018-06-04T10:00:51.362Z,12.00
2018-06-04T10:01:51.314Z,12.00
2018-06-04T10:02:51.277Z,12.00
2018-06-04T10:03:51.266Z,12.00
2018-06-04T10:04:51.191Z,16.00
2018-06-04T10:05:51.153Z,16.00
2018-06-04T10:06:51.110Z,16.00
2018-06-04T10:07:51.072Z,12.00
2018-06-04T10:08:51.080Z,12.00
2018-06-04T10:09:50.991Z,12.00
2018-06-04T10:10:50.946Z,12.00
2018-06-04T10:11:50.909Z,12.00
2018-06-04T10:12:50.871Z,12.00
2018-06-04T10:13:50.842Z,12.00
2018-06-04T10:14:50.783Z,12.00
2018-06-04T10:15:50.746Z,12.00
2018-06-04T10:16:50.708Z,12.00
2018-06-04T10:17:50.666Z,12.00
2018-06-04T10:18:50.627Z,12.00
2018-06-04T10:19:50.592Z,12.00
2018-06-04T10:20:50.551Z,16.00
2018-06-04T10:21:50.501Z,12.00
2018-06-04T10:22:50.461Z,12.00
2018-06-04T10:23:50.421Z,12.00
2018-06-04T10:24:50.388Z,12.00
2018-06-04T10:25:50.337Z,12.00
2018-06-04T10:26:50.299Z,12.00
2018-06-04T10:27:50.297Z,12.00
2018-06-04T10:28:50.217Z,12.00
2018-06-04T10:29:50.175Z,12.00
2018-06-04T10:30:50.136Z,12.00
2018-06-04T10:31:50.097Z,12.00
2018-06-04T10:32:50.057Z,12.00
2018-06-04T10:33:50.015Z,12.00
2018-06-04T10:34:49.974Z,12.00
2018-06-04T10:35:49.933Z,12.00
2018-06-04T10:36:49.890Z,12.00
2018-06-04T10:37:49.853Z,12.00
2018-06-04T10:38:49.813Z,12.00
2018-06-04T10:39:49.774Z,12.00
2018-06-04T10:40:49.731Z,12.00
2018-06-04T10:41:49.690Z,12.00
2018-06-04T10:42:49.648Z,8.00
2018-06-04T10:43:49.615Z,8.00
2018-06-04T10:44:49.566Z,8.00
2018-06-04T10:45:49.528Z,8.00
2018-06-04T10:46:49.486Z,8.00
2018-06-04T10:47:49.447Z,8.00
2018-06-04T10:48:49.409Z,8.00
2018-06-04T10:49:49.366Z,8.00
2018-06-04T10:50:49.327Z,8.00
2018-06-04T10:51:49.287Z,8.00
2018-06-04T10:52:49.244Z,8.00
2018-06-04T10:53:49.200Z,8.00
2018-06-04T10:54:49.163Z,8.00
2018-06-04T10:55:49.125Z,8.00
2018-06-04T10:56:49.110Z,8.00
2018-06-04T10:57:49.077Z,8.00
2018-06-04T10:58:49.003Z,8.00
2018-06-04T10:59:48.963Z,12.00
2018-06-04T11:00:48.919Z,12.00
2018-06-04T11:01:48.878Z,12.00
2018-06-04T11:02:48.840Z,12.00
2018-06-04T11:03:48.800Z,12.00
2018-06-04T11:04:48.804Z,12.00
2018-06-04T11:05:48.717Z,12.00
2018-06-04T11:06:48.681Z,12.00
2018-06-04T11:07:48.635Z,12.00
2018-06-04T11:08:48.598Z,12.00
2018-06-04T11:09:48.557Z,12.00
2018-06-04T11:10:48.515Z,12.00
2018-06-04T11:11:48.474Z,12.00
2018-06-04T11:12:48.436Z,12.00
2018-06-04T11:13:48.396Z,12.00
2018-06-04T11:14:48.353Z,12.00
2018-06-04T11:15:48.313Z,12.00
2018-06-04T11:16:48.273Z,12.00
2018-06-04T11:17:48.231Z,8.00
2018-06-04T11:18:48.197Z,8.00
2018-06-04T11:19:48.152Z,8.00
2018-06-04T11:20:48.107Z,8.00
2018-06-04T11:21:48.087Z,8.00
2018-06-04T11:22:48.034Z,8.00
2018-06-04T11:23:47.988Z,8.00
2018-06-04T11:24:47.961Z,8.00
2018-06-04T11:25:47.988Z,8.00
2018-06-04T11:26:47.870Z,8.00
2018-06-04T11:27:47.831Z,8.00
2018-06-04T11:28:47.791Z,8.00
2018-06-04T11:29:47.753Z,8.00
2018-06-04T11:30:47.714Z,8.00
2018-06-04T11:31:47.670Z,8.00
2018-06-04T11:32:47.628Z,8.00
2018-06-04T11:33:47.588Z,8.00
2018-06-04T11:34:47.546Z,8.00
2018-06-04T11:35:47.505Z,8.00
2018-06-04T11:36:47.466Z,8.00
2018-06-04T11:37:47.426Z,8.00
2018-06-04T11:38:47.389Z,8.00
2018-06-04T11:39:47.345Z,8.00
2018-06-04T11:40:47.303Z,8.00
2018-06-04T11:41:47.264Z,8.00
2018-06-04T11:42:47.225Z,8.00
2018-06-04T11:43:47.184Z,8.00
2018-06-04T11:44:47.147Z,8.00
2018-06-04T11:45:47.105Z,8.00
2018-06-04T11:46:47.064Z,8.00
2018-06-04T11:47:47.022Z,8.00
2018-06-04T11:48:46.979Z,12.00
2018-06-04T11:49:46.941Z,8.00
2018-06-04T11:50:46.904Z,12.00
2018-06-04T11:51:46.867Z,12.00
2018-06-04T11:52:46.817Z,8.00
2018-06-04T11:53:46.776Z,8.00
2018-06-04T11:54:46.736Z,8.00
2018-06-04T11:55:46.699Z,8.00
2018-06-04T11:56:46.711Z,8.00
2018-06-04T11:57:46.619Z,8.00
2018-06-04T11:58:46.608Z,8.00
2018-06-04T11:59:46.535Z,8.00
2018-06-04T12:00:46.534Z,8.00
2018-06-04T12:01:46.554Z,8.00
2018-06-04T12:02:46.415Z,8.00
2018-06-04T12:03:46.375Z,8.00
2018-06-04T12:04:46.333Z,8.00
2018-06-04T12:05:46.288Z,8.00
2018-06-04T12:06:46.257Z,8.00
2018-06-04T12:07:46.214Z,8.00
2018-06-04T12:08:46.170Z,8.00
2018-06-04T12:09:46.134Z,8.00
2018-06-04T12:10:46.091Z,8.00
2018-06-04T12:11:46.151Z,8.00
2018-06-04T12:12:46.011Z,8.00
2018-06-04T12:13:45.968Z,8.00
2018-06-04T12:14:45.933Z,8.00
2018-06-04T12:15:45.890Z,8.00
2018-06-04T12:16:45.854Z,8.00
2018-06-04T12:17:45.810Z,8.00
2018-06-04T12:18:45.770Z,8.00
2018-06-04T12:19:45.729Z,8.00
2018-06-04T12:20:45.686Z,8.00
2018-06-04T12:21:45.648Z,8.00
2018-06-04T12:22:45.610Z,8.00
2018-06-04T12:23:45.571Z,8.00
2018-06-04T12:24:45.529Z,8.00
2018-06-04T12:25:45.488Z,8.00
2018-06-04T12:26:45.448Z,8.00
2018-06-04T12:27:45.409Z,8.00
2018-06-04T12:28:45.367Z,8.00
2018-06-04T12:29:45.324Z,8.00
2018-06-04T12:30:45.288Z,8.00
2018-06-04T12:31:45.248Z,8.00
2018-06-04T12:32:45.203Z,8.00
2018-06-04T12:33:45.165Z,8.00
2018-06-04T12:34:45.123Z,8.00
2018-06-04T12:35:45.089Z,8.00
2018-06-04T12:36:45.044Z,8.00
2018-06-04T12:37:45.014Z,8.00
2018-06-04T12:38:44.989Z,8.00
2018-06-04T12:39:44.991Z,12.00
2018-06-04T12:40:44.909Z,12.00
2018-06-04T12:41:44.875Z,12.00
2018-06-04T12:42:44.805Z,12.00
2018-06-04T12:43:44.764Z,12.00
2018-06-04T12:44:44.724Z,12.00
2018-06-04T12:45:44.684Z,12.00
2018-06-04T12:46:44.638Z,12.00
2018-06-04T12:47:44.601Z,8.00
2018-06-04T12:48:44.567Z,8.00
2018-06-04T12:49:44.521Z,8.00
2018-06-04T12:50:44.481Z,8.00
2018-06-04T12:51:44.443Z,8.00
2018-06-04T12:52:44.399Z,8.00
2018-06-04T12:53:44.360Z,8.00
2018-06-04T12:54:44.321Z,8.00
2018-06-04T12:55:44.284Z,8.00
2018-06-04T12:56:44.241Z,8.00
2018-06-04T12:57:44.294Z,8.00
2018-06-04T12:58:44.161Z,8.00
2018-06-04T12:59:44.118Z,8.00
2018-06-04T13:00:44.077Z,8.00
2018-06-04T13:01:44.043Z,8.00
2018-06-04T13:02:43.999Z,8.00
2018-06-04T13:03:43.960Z,8.00
2018-06-04T13:04:43.999Z,8.00
2018-06-04T13:05:43.879Z,8.00
2018-06-04T13:06:43.836Z,8.00
2018-06-04T13:07:43.854Z,8.00
2018-06-04T13:08:43.759Z,8.00
2018-06-04T13:09:43.719Z,8.00
2018-06-04T13:10:43.680Z,8.00
2018-06-04T13:11:43.641Z,8.00
2018-06-04T13:12:43.597Z,8.00
2018-06-04T13:13:43.643Z,8.00
2018-06-04T13:14:43.529Z,8.00
2018-06-04T13:15:43.475Z,8.00
2018-06-04T13:16:43.437Z,8.00